createdAt,value
2022-12-31T00:01:22.194Z,19.47
2022-12-31T00:03:49.470Z,17.20
2022-12-31T00:06:36.840Z,15.47
2022-12-31T00:09:06.398Z,24.77
2022-12-31T00:11:34.269Z,15.60
2022-12-31T00:14:01.665Z,28.50
2022-12-31T00:16:36.634Z,17.77
2022-12-31T00:19:05.139Z,19.77
2022-12-31T00:21:33.626Z,18.63
2022-12-31T00:24:01.652Z,18.97
2022-12-31T00:26:30.966Z,23.63
2022-12-31T00:28:59.983Z,19.87
2022-12-31T00:31:32.561Z,20.83
2022-12-31T00:34:01.527Z,10.73
2022-12-31T00:36:34.813Z,15.73
2022-12-31T00:39:03.639Z,22.77
2022-12-31T00:41:31.355Z,18.27
2022-12-31T00:43:58.907Z,19.80
2022-12-31T00:46:26.512Z,22.53
2022-12-31T00:48:54.040Z,18.30
2022-12-31T00:51:24.421Z,16.20
2022-12-31T00:53:51.537Z,20.87
2022-12-31T00:56:21.921Z,18.87
2022-12-31T00:58:52.527Z,22.60
2022-12-31T01:01:22.721Z,13.97
2022-12-31T01:03:51.758Z,42.13
2022-12-31T01:06:19.321Z,30.73
2022-12-31T01:08:49.591Z,17.23
2022-12-31T01:11:20.599Z,30.30
2022-12-31T01:13:56.819Z,29.90
2022-12-31T01:16:31.485Z,17.77
2022-12-31T01:19:04.248Z,16.17
2022-12-31T01:21:35.095Z,17.60
2022-12-31T01:24:02.178Z,32.53
2022-12-31T01:26:30.145Z,16.40
2022-12-31T01:28:59.593Z,12.37
2022-12-31T01:31:27.064Z,31.03
2022-12-31T01:33:54.277Z,19.70
2022-12-31T01:36:26.244Z,20.70
2022-12-31T01:38:55.341Z,24.90
2022-12-31T01:41:27.322Z,19.83
2022-12-31T01:44:04.017Z,17.13
2022-12-31T01:46:40.102Z,22.83
2022-12-31T01:49:16.843Z,16.83
2022-12-31T01:51:49.064Z,29.47
2022-12-31T01:54:18.710Z,33.37
2022-12-31T01:56:49.484Z,12.83
2022-12-31T01:59:18.845Z,13.70
2022-12-31T02:01:48.507Z,22.93
2022-12-31T02:04:16.505Z,25.23
2022-12-31T02:07:08.786Z,23.30
2022-12-31T02:09:39.420Z,14.83
2022-12-31T02:12:09.118Z,18.93
2022-12-31T02:14:42.600Z,17.43
2022-12-31T02:17:12.470Z,22.63
2022-12-31T02:19:45.369Z,27.03
2022-12-31T02:22:31.153Z,17.90
2022-12-31T02:25:16.780Z,11.70
2022-12-31T02:28:11.815Z,26.03
2022-12-31T02:30:44.662Z,18.43
2022-12-31T02:33:28.031Z,27.63
2022-12-31T02:35:58.682Z,16.40
2022-12-31T02:38:36.450Z,16.33
2022-12-31T02:41:03.515Z,13.67
2022-12-31T02:43:30.671Z,22.13
2022-12-31T02:46:21.681Z,26.27
2022-12-31T02:49:12.743Z,25.07
2022-12-31T02:51:48.813Z,30.43
2022-12-31T02:54:34.604Z,16.53
2022-12-31T02:57:24.901Z,20.97
2022-12-31T03:00:17.425Z,13.03
2022-12-31T03:02:47.127Z,26.77
2022-12-31T03:05:16.361Z,16.93
2022-12-31T03:07:44.826Z,30.30
2022-12-31T03:10:15.020Z,16.17
2022-12-31T03:12:49.521Z,22.27
2022-12-31T03:15:27.463Z,19.07
2022-12-31T03:18:12.565Z,28.57
2022-12-31T03:21:09.561Z,28.57
2022-12-31T03:23:50.300Z,27.83
2022-12-31T03:26:17.356Z,32.90
2022-12-31T03:28:48.044Z,26.40
2022-12-31T03:31:16.447Z,23.33
2022-12-31T03:33:43.639Z,20.10
2022-12-31T03:36:14.501Z,14.50
2022-12-31T03:38:42.259Z,19.07
2022-12-31T03:41:11.248Z,22.60
2022-12-31T03:43:38.986Z,21.73
2022-12-31T03:46:08.296Z,23.60
2022-12-31T03:48:35.368Z,15.93
2022-12-31T03:51:02.409Z,19.00
2022-12-31T03:53:29.423Z,9.87
2022-12-31T03:55:56.442Z,15.77
2022-12-31T03:58:23.531Z,18.93
2022-12-31T04:00:51.125Z,23.30
2022-12-31T04:03:21.210Z,17.87
2022-12-31T04:05:55.943Z,16.30
2022-12-31T04:08:23.710Z,14.60
2022-12-31T04:10:51.014Z,19.30
2022-12-31T04:13:20.870Z,22.00
2022-12-31T04:15:51.411Z,18.30
2022-12-31T04:18:18.465Z,27.30
2022-12-31T04:20:45.505Z,17.17
2022-12-31T04:23:12.585Z,18.80
2022-12-31T04:25:39.633Z,25.63
2022-12-31T04:28:06.643Z,5.83
2022-12-31T04:30:33.673Z,18.13
2022-12-31T04:33:00.824Z,22.50
2022-12-31T04:35:27.956Z,13.70
2022-12-31T04:37:55.046Z,22.37
2022-12-31T04:40:22.131Z,21.97
2022-12-31T04:42:49.475Z,20.23
2022-12-31T04:45:16.511Z,19.30
2022-12-31T04:47:43.522Z,10.50
2022-12-31T04:50:10.566Z,10.97
2022-12-31T04:52:43.075Z,18.33
2022-12-31T04:55:11.112Z,20.70
2022-12-31T04:57:38.167Z,20.60
2022-12-31T05:00:05.734Z,19.23
2022-12-31T05:02:32.865Z,13.03
2022-12-31T05:04:59.974Z,11.30
2022-12-31T05:07:27.062Z,9.33
2022-12-31T05:09:54.092Z,11.70
2022-12-31T05:12:21.173Z,15.53
2022-12-31T05:14:48.225Z,14.37
2022-12-31T05:17:15.366Z,13.40
2022-12-31T05:19:42.394Z,19.63
2022-12-31T05:22:28.093Z,13.80
2022-12-31T05:24:55.474Z,21.57
2022-12-31T05:27:22.998Z,15.50
2022-12-31T05:29:50.292Z,16.70
2022-12-31T05:32:17.527Z,5.73
2022-12-31T05:34:44.877Z,14.80
2022-12-31T05:37:12.189Z,19.30
2022-12-31T05:39:39.297Z,20.07
2022-12-31T05:42:06.454Z,13.47
2022-12-31T05:44:33.581Z,20.23
2022-12-31T05:47:00.647Z,16.87
2022-12-31T05:49:27.703Z,16.00
2022-12-31T05:51:54.847Z,16.00
2022-12-31T05:54:24.934Z,19.63
2022-12-31T05:56:52.072Z,11.23
2022-12-31T05:59:19.229Z,10.27
2022-12-31T06:01:46.475Z,17.03
2022-12-31T06:04:15.868Z,11.70
2022-12-31T06:06:43.177Z,16.20
2022-12-31T06:09:10.299Z,9.33
2022-12-31T06:11:37.433Z,17.07
2022-12-31T06:14:04.574Z,13.97
2022-12-31T06:16:31.651Z,13.43
2022-12-31T06:18:58.797Z,11.40
2022-12-31T06:21:25.907Z,12.63
2022-12-31T06:23:52.960Z,14.33
2022-12-31T06:26:22.729Z,13.90
2022-12-31T06:28:49.839Z,23.27
2022-12-31T06:31:17.344Z,12.00
2022-12-31T06:33:47.283Z,13.07
2022-12-31T06:36:15.990Z,16.83
2022-12-31T06:38:44.214Z,18.20
2022-12-31T06:41:13.753Z,9.03
2022-12-31T06:43:41.919Z,11.40
2022-12-31T06:46:11.363Z,14.93
2022-12-31T06:48:38.994Z,13.60
2022-12-31T06:51:22.626Z,12.90
2022-12-31T06:53:51.524Z,15.83
2022-12-31T06:56:34.499Z,7.20
2022-12-31T06:59:03.415Z,17.70
2022-12-31T07:02:02.433Z,13.33
2022-12-31T07:04:48.455Z,14.83
2022-12-31T07:07:38.736Z,13.87
2022-12-31T07:10:17.748Z,12.70
2022-12-31T07:13:02.656Z,27.43
2022-12-31T07:15:51.485Z,15.50
2022-12-31T07:18:43.043Z,17.97
2022-12-31T07:21:16.306Z,17.20
2022-12-31T07:23:43.833Z,23.13
2022-12-31T07:26:35.343Z,14.73
2022-12-31T07:29:08.192Z,19.87
2022-12-31T07:31:47.881Z,24.97
2022-12-31T07:34:14.925Z,10.20
2022-12-31T07:36:54.065Z,16.03
2022-12-31T07:39:42.978Z,22.50
2022-12-31T07:42:18.568Z,13.70
2022-12-31T07:44:54.467Z,15.03
2022-12-31T07:47:27.725Z,14.30
2022-12-31T07:49:55.799Z,20.03
2022-12-31T07:52:25.055Z,14.43
2022-12-31T07:54:52.101Z,23.93
2022-12-31T07:57:20.901Z,15.53
2022-12-31T08:00:13.451Z,12.77
2022-12-31T08:03:01.214Z,18.73
2022-12-31T08:05:48.233Z,22.73
2022-12-31T08:08:33.596Z,12.43
2022-12-31T08:11:12.571Z,16.53
2022-12-31T08:13:41.708Z,10.30
2022-12-31T08:16:13.342Z,19.90
2022-12-31T08:18:40.915Z,11.93
2022-12-31T08:21:35.193Z,14.77
2022-12-31T08:24:07.715Z,10.80
2022-12-31T08:27:05.261Z,22.10
2022-12-31T08:29:54.181Z,12.80
2022-12-31T08:32:46.068Z,10.77
2022-12-31T08:35:28.198Z,4.57
2022-12-31T08:38:33.988Z,16.90
2022-12-31T08:41:03.741Z,7.70
2022-12-31T08:43:46.003Z,13.07
2022-12-31T08:46:38.180Z,12.00
2022-12-31T08:49:05.496Z,5.80
2022-12-31T08:51:32.738Z,16.97
2022-12-31T08:54:00.099Z,9.07
2022-12-31T08:56:43.708Z,11.90
2022-12-31T08:59:24.899Z,8.07
2022-12-31T09:02:18.607Z,6.97
2022-12-31T09:05:04.727Z,10.33
2022-12-31T09:08:04.060Z,6.03
2022-12-31T09:10:39.321Z,6.90
2022-12-31T09:13:25.400Z,7.03
2022-12-31T09:16:05.141Z,11.73
2022-12-31T09:18:39.935Z,5.50
2022-12-31T09:21:10.101Z,6.90
2022-12-31T09:23:37.483Z,6.43
2022-12-31T09:26:40.662Z,7.47
2022-12-31T09:29:32.109Z,4.23
2022-12-31T09:32:19.506Z,6.00
2022-12-31T09:35:17.687Z,3.93
2022-12-31T09:37:50.229Z,4.00
2022-12-31T09:40:29.187Z,4.67
2022-12-31T09:42:56.187Z,4.07
2022-12-31T09:46:00.968Z,7.30
2022-12-31T09:48:56.803Z,2.47
2022-12-31T09:51:53.659Z,3.03
2022-12-31T09:54:29.700Z,3.67
2022-12-31T09:57:18.053Z,4.27
2022-12-31T10:00:05.823Z,4.60
2022-12-31T10:02:42.039Z,2.60
2022-12-31T10:05:18.336Z,6.30
2022-12-31T10:07:51.984Z,3.20
2022-12-31T10:10:28.092Z,3.97
2022-12-31T10:13:17.105Z,5.70
2022-12-31T10:15:59.470Z,3.83
2022-12-31T10:18:44.742Z,2.70
2022-12-31T10:21:52.073Z,5.07
2022-12-31T10:24:47.668Z,3.20
2022-12-31T10:27:32.361Z,2.10
2022-12-31T10:30:12.324Z,2.60
2022-12-31T10:32:43.688Z,1.93
2022-12-31T10:35:27.475Z,3.00
2022-12-31T10:38:28.442Z,2.87
2022-12-31T10:41:17.027Z,2.53
2022-12-31T10:43:56.046Z,2.07
2022-12-31T10:46:37.932Z,1.97
2022-12-31T10:49:07.971Z,3.00
2022-12-31T10:52:12.559Z,1.47
2022-12-31T10:54:45.671Z,5.17
2022-12-31T10:57:21.222Z,1.10
2022-12-31T10:59:54.968Z,2.03
2022-12-31T11:02:40.227Z,1.40
2022-12-31T11:05:28.231Z,1.23
2022-12-31T11:08:07.594Z,3.07
2022-12-31T11:10:46.762Z,1.83
2022-12-31T11:13:50.828Z,1.00
2022-12-31T11:16:54.079Z,1.20
2022-12-31T11:19:21.262Z,1.10
2022-12-31T11:22:07.565Z,1.83
2022-12-31T11:24:58.973Z,1.67
2022-12-31T11:27:48.977Z,1.30
2022-12-31T11:30:25.250Z,1.30
2022-12-31T11:33:01.056Z,6.40
2022-12-31T11:36:05.475Z,6.30
2022-12-31T11:38:38.971Z,2.07
2022-12-31T11:41:56.078Z,1.40
2022-12-31T11:44:38.094Z,1.43
2022-12-31T11:47:10.430Z,3.50
2022-12-31T11:49:54.606Z,1.53
2022-12-31T11:52:57.180Z,1.20
2022-12-31T11:55:46.887Z,3.07
2022-12-31T11:58:20.685Z,2.07
2022-12-31T12:00:57.445Z,3.93
2022-12-31T12:03:24.812Z,1.87
2022-12-31T12:05:52.312Z,1.30
2022-12-31T12:08:19.977Z,2.07
2022-12-31T12:10:53.740Z,1.10
2022-12-31T12:13:27.257Z,2.80
2022-12-31T12:16:00.579Z,1.30
2022-12-31T12:18:49.523Z,3.00
2022-12-31T12:21:19.373Z,3.80
2022-12-31T12:23:59.907Z,2.23
2022-12-31T12:26:29.547Z,1.97
2022-12-31T12:29:08.182Z,1.67
2022-12-31T12:31:36.267Z,4.70
2022-12-31T12:34:04.178Z,2.00
2022-12-31T12:36:32.164Z,1.20
2022-12-31T12:39:05.777Z,1.33
2022-12-31T12:41:33.418Z,1.10
2022-12-31T12:44:06.419Z,1.20
2022-12-31T12:46:47.938Z,1.10
2022-12-31T12:49:28.075Z,1.20
2022-12-31T12:52:21.831Z,1.10
2022-12-31T12:55:00.709Z,1.10
2022-12-31T12:57:42.419Z,1.50
2022-12-31T13:00:22.317Z,1.07
2022-12-31T13:03:13.953Z,2.30
2022-12-31T13:05:59.831Z,1.73
2022-12-31T13:08:48.508Z,5.17
2022-12-31T13:11:53.800Z,2.13
2022-12-31T13:14:48.891Z,3.93
2022-12-31T13:18:02.394Z,11.13
2022-12-31T13:20:40.698Z,8.27
2022-12-31T13:23:25.701Z,5.90
2022-12-31T13:26:13.869Z,15.43
2022-12-31T13:28:43.902Z,6.83
2022-12-31T13:31:19.233Z,7.43
2022-12-31T13:33:52.824Z,8.97
2022-12-31T13:36:24.096Z,12.00
2022-12-31T13:38:51.230Z,4.97
2022-12-31T13:41:36.494Z,16.37
2022-12-31T13:44:49.239Z,6.70
2022-12-31T13:47:46.388Z,11.07
2022-12-31T13:50:52.864Z,10.13
2022-12-31T13:54:01.830Z,9.53
2022-12-31T13:56:36.023Z,14.47
2022-12-31T13:59:19.718Z,10.40
2022-12-31T14:01:59.488Z,16.30
2022-12-31T14:04:37.732Z,19.20
2022-12-31T14:07:17.777Z,8.43
2022-12-31T14:09:46.575Z,10.07
2022-12-31T14:12:13.593Z,14.60
2022-12-31T14:15:03.426Z,13.10
2022-12-31T14:17:36.741Z,19.10
2022-12-31T14:20:31.424Z,28.80
2022-12-31T14:23:25.314Z,13.60
2022-12-31T14:26:01.355Z,21.43
2022-12-31T14:28:35.666Z,17.60
2022-12-31T14:31:19.057Z,17.20
2022-12-31T14:33:56.662Z,21.63
2022-12-31T14:36:33.852Z,14.50
2022-12-31T14:39:10.171Z,11.10
2022-12-31T14:41:58.081Z,9.90
2022-12-31T14:44:33.144Z,9.77
2022-12-31T14:47:25.462Z,9.90
2022-12-31T14:49:55.651Z,9.10
2022-12-31T14:52:31.819Z,13.80
2022-12-31T14:55:43.560Z,18.47
2022-12-31T14:58:28.233Z,21.83
2022-12-31T15:01:01.512Z,13.93
2022-12-31T15:03:31.504Z,18.03
2022-12-31T15:06:17.359Z,11.83
2022-12-31T15:08:56.704Z,11.00
2022-12-31T15:11:52.456Z,21.67
2022-12-31T15:14:25.469Z,16.93
2022-12-31T15:17:16.607Z,16.07
2022-12-31T15:19:55.661Z,11.50
2022-12-31T15:22:44.438Z,29.27
2022-12-31T15:25:38.399Z,14.17
2022-12-31T15:28:24.540Z,9.63
2022-12-31T15:31:01.220Z,10.63
2022-12-31T15:33:36.627Z,16.17
2022-12-31T15:36:23.371Z,17.03
2022-12-31T15:38:51.124Z,18.00
2022-12-31T15:41:29.411Z,19.53
2022-12-31T15:44:11.015Z,20.90
2022-12-31T15:46:41.622Z,20.50
2022-12-31T15:49:23.222Z,24.67
2022-12-31T15:52:00.125Z,20.03
2022-12-31T15:54:35.224Z,12.20
2022-12-31T15:57:09.113Z,9.27
2022-12-31T15:59:38.639Z,22.97
2022-12-31T16:02:27.659Z,14.87
2022-12-31T16:04:56.387Z,27.50
2022-12-31T16:07:27.139Z,16.67
2022-12-31T16:09:57.596Z,22.53
2022-12-31T16:12:33.706Z,16.00
2022-12-31T16:15:03.442Z,21.43
2022-12-31T16:17:31.889Z,20.07
2022-12-31T16:20:01.186Z,22.47
2022-12-31T16:22:39.848Z,28.53
2022-12-31T16:27:55.802Z,20.27
2022-12-31T16:30:30.518Z,15.70
2022-12-31T16:33:05.086Z,30.30
2022-12-31T16:35:34.634Z,22.87
2022-12-31T16:38:10.644Z,31.93
2022-12-31T16:40:38.279Z,29.60
2022-12-31T16:43:20.459Z,22.00
2022-12-31T16:45:48.519Z,34.13
2022-12-31T16:48:21.143Z,22.60
2022-12-31T16:50:54.600Z,37.60
2022-12-31T16:53:26.668Z,33.67
2022-12-31T16:55:56.425Z,33.07
2022-12-31T16:58:41.591Z,25.17
2022-12-31T17:01:11.638Z,28.63
2022-12-31T17:03:43.885Z,25.33
2022-12-31T17:06:15.432Z,32.63
2022-12-31T17:08:59.431Z,28.00
2022-12-31T17:11:56.831Z,15.00
2022-12-31T17:14:26.871Z,28.03
2022-12-31T17:17:02.554Z,42.40
2022-12-31T17:19:46.046Z,35.33
2022-12-31T17:22:34.226Z,31.67
2022-12-31T17:25:14.651Z,36.63
2022-12-31T17:27:54.226Z,27.13
2022-12-31T17:30:30.633Z,21.87
2022-12-31T17:33:22.099Z,31.07
2022-12-31T17:35:55.036Z,35.17
2022-12-31T17:38:22.136Z,46.53
2022-12-31T17:41:07.550Z,39.27
2022-12-31T17:43:36.958Z,23.30
2022-12-31T17:46:14.136Z,33.80
2022-12-31T17:48:42.324Z,30.63
2022-12-31T17:51:12.214Z,23.77
2022-12-31T17:53:39.276Z,19.00
2022-12-31T17:56:14.426Z,20.43
2022-12-31T17:58:54.367Z,20.83
2022-12-31T18:01:23.739Z,18.80
2022-12-31T18:03:50.981Z,17.03
2022-12-31T18:06:19.702Z,20.27
2022-12-31T18:08:47.099Z,17.20
2022-12-31T18:11:22.225Z,14.43
2022-12-31T18:13:49.802Z,14.83
2022-12-31T18:16:17.217Z,18.43
2022-12-31T18:18:45.483Z,11.73
2022-12-31T18:21:27.769Z,9.87
2022-12-31T18:26:23.568Z,9.97
2022-12-31T18:28:51.645Z,11.87
2022-12-31T18:31:27.374Z,5.90
2022-12-31T18:33:57.072Z,16.43
2022-12-31T18:36:25.573Z,15.17
2022-12-31T18:38:53.199Z,10.40
2022-12-31T18:41:27.045Z,10.63
2022-12-31T18:43:54.567Z,6.53
2022-12-31T18:46:24.324Z,11.00
2022-12-31T18:48:51.927Z,13.20
2022-12-31T18:51:26.449Z,7.80
2022-12-31T18:53:58.421Z,7.33
2022-12-31T18:56:25.507Z,20.90
2022-12-31T18:58:52.748Z,6.40
2022-12-31T19:01:29.359Z,9.10
2022-12-31T19:03:58.979Z,5.03
2022-12-31T19:06:27.111Z,7.90
2022-12-31T19:08:54.369Z,5.20
2022-12-31T19:11:22.082Z,6.17
2022-12-31T19:13:50.086Z,8.27
2022-12-31T19:16:18.049Z,6.90
2022-12-31T19:18:45.251Z,5.00
2022-12-31T19:21:22.425Z,7.63
2022-12-31T19:23:50.686Z,7.27
2022-12-31T19:26:20.177Z,3.90
2022-12-31T19:28:48.151Z,6.57
2022-12-31T19:31:16.067Z,9.70
2022-12-31T19:33:43.740Z,11.00
2022-12-31T19:36:19.772Z,6.47
2022-12-31T19:38:47.375Z,4.57
2022-12-31T19:41:22.960Z,2.60
2022-12-31T19:43:50.156Z,4.50
2022-12-31T19:46:18.494Z,4.30
2022-12-31T19:48:46.135Z,3.50
2022-12-31T19:51:18.604Z,3.30
2022-12-31T19:53:49.535Z,2.27
2022-12-31T19:56:19.229Z,3.03
2022-12-31T19:58:46.948Z,2.13
2022-12-31T20:01:22.957Z,1.87
2022-12-31T20:03:51.197Z,3.30
2022-12-31T20:06:19.183Z,3.40
2022-12-31T20:08:46.693Z,3.00
2022-12-31T20:11:14.844Z,3.00
2022-12-31T20:13:42.390Z,3.30
2022-12-31T20:16:12.231Z,2.50
2022-12-31T20:18:40.597Z,4.87
2022-12-31T20:21:21.795Z,2.53
2022-12-31T20:23:50.650Z,5.63
2022-12-31T20:26:19.241Z,2.40
2022-12-31T20:28:46.408Z,5.07
2022-12-31T20:31:17.029Z,1.50
2022-12-31T20:33:45.005Z,3.73
2022-12-31T20:36:15.116Z,8.17
2022-12-31T20:38:43.401Z,13.37
2022-12-31T20:41:17.968Z,2.80
2022-12-31T20:43:45.706Z,16.27
2022-12-31T20:46:15.976Z,5.63
2022-12-31T20:48:44.706Z,8.10
2022-12-31T20:51:13.159Z,7.60
2022-12-31T20:53:40.591Z,10.60
2022-12-31T20:56:09.682Z,8.90
2022-12-31T20:58:36.715Z,9.50
2022-12-31T21:01:07.870Z,11.23
2022-12-31T21:06:27.723Z,5.30
2022-12-31T21:08:56.182Z,4.93
2022-12-31T21:11:41.817Z,4.33
2022-12-31T21:14:08.912Z,5.73
2022-12-31T21:16:36.155Z,4.30
2022-12-31T21:19:03.451Z,2.80
2022-12-31T21:21:30.562Z,8.73
2022-12-31T21:23:57.606Z,12.63
2022-12-31T21:26:25.065Z,4.20
2022-12-31T21:28:53.769Z,5.60
2022-12-31T21:31:21.251Z,6.00
2022-12-31T21:33:48.612Z,10.50
2022-12-31T21:36:16.450Z,6.60
2022-12-31T21:38:45.200Z,10.57
2022-12-31T21:41:35.061Z,14.30
2022-12-31T21:44:02.806Z,9.37
2022-12-31T21:46:30.127Z,11.63
2022-12-31T21:48:58.680Z,13.17
2022-12-31T21:51:26.476Z,13.80
2022-12-31T21:53:53.658Z,17.03
2022-12-31T21:56:21.825Z,21.47
2022-12-31T21:59:14.649Z,16.30
2022-12-31T22:02:00.472Z,18.13
2022-12-31T22:05:01.750Z,21.43
2022-12-31T22:07:15.590Z,16.00
2022-12-31T22:09:42.860Z,17.73
2022-12-31T22:12:10.066Z,18.10
2022-12-31T22:14:37.100Z,20.50
2022-12-31T22:17:04.155Z,19.60
2022-12-31T22:19:31.196Z,25.90
2022-12-31T22:21:58.290Z,24.13
2022-12-31T22:24:25.355Z,18.07
2022-12-31T22:26:55.693Z,23.23
2022-12-31T22:29:23.712Z,26.43
2022-12-31T22:31:50.774Z,27.37
2022-12-31T22:34:18.098Z,34.83
2022-12-31T22:36:45.236Z,24.50
2022-12-31T22:39:44.046Z,20.63
2022-12-31T22:42:03.168Z,23.00
2022-12-31T22:44:30.226Z,22.83
2022-12-31T22:47:00.306Z,19.00
2022-12-31T22:49:27.497Z,27.57
2022-12-31T22:51:57.699Z,16.93
2022-12-31T22:54:27.045Z,19.77
2022-12-31T22:56:54.295Z,17.40
2022-12-31T22:59:21.590Z,22.23
2022-12-31T23:01:48.820Z,19.30
2022-12-31T23:04:16.077Z,23.07
2022-12-31T23:06:47.435Z,21.53
2022-12-31T23:09:35.464Z,23.53
2022-12-31T23:12:07.027Z,26.87
2022-12-31T23:14:52.799Z,31.23
2022-12-31T23:17:44.610Z,25.00
2022-12-31T23:20:36.969Z,30.27
2022-12-31T23:23:11.674Z,38.20
2022-12-31T23:25:43.342Z,25.17
2022-12-31T23:28:23.219Z,30.40
2022-12-31T23:30:51.630Z,25.27
2022-12-31T23:33:23.921Z,34.80
2022-12-31T23:35:51.027Z,27.67
2022-12-31T23:38:18.634Z,38.37
2022-12-31T23:40:45.882Z,35.93
2022-12-31T23:43:20.723Z,35.70
2022-12-31T23:45:49.982Z,43.23
2022-12-31T23:48:16.969Z,38.27
2022-12-31T23:50:49.196Z,43.00
2022-12-31T23:53:19.649Z,44.07
2022-12-31T23:55:46.786Z,33.13
2022-12-31T23:58:13.860Z,25.20
